Don Miguel Hidalgo Y Costilla International Airport
MMGL : now visible

Aeroporto :











RITROVATECI SU...

 
LOGIN :

Iscrizione | Disclaimer

   EN    FR    IT 

 









Sommario :    VFR   VFR Marginale   IFR   IFR Intensivo   IFR Molto Intensivo
Visibilità : 
Base nubi : 
>= 8 km
>= 3000ft
5 / 8 km
1000 / 3000 ft
1500m / 5 km
500 / 1000 ft
800 / 1500m
200 / 500 ft
< 800m
< 200 ft
Simboli :   Temporali  Nebbia  Neve Forte  Precipitazioni Forti  Vento > 20 kt







- Altitudine del aeroporto : 5016 ft
- Codice IATA : GDL


MMGL - Don Miguel Hidalgo Y Costilla International

ULTIMO METAR :
  • 201345Z 00000KT 7SM SKC 17/02 A3025 RMK HZY

METARs OBSOLETI :
  • 201250Z 00000KT 8SM SKC 13/03 A3022
  • 201142Z 00000KT 10SM FEW300 13/02 A3020 RMK SLP097 57001 905 8/001

TAF TAF MMGL
Valido dal 20 a 12 ore il 21 a 18 ore UTC


201107Z 2012/2118 00000KT P6SM SKC TX30/2021Z TN12/2012Z
FM201600 16010KT P6SM SKC
FM210200 30005KT P6SM SKC
FM211600 30010KT P6SM SCT250
FIR MMFR / America del Nord



MetMap, La meteo Aeronautica in un colpo d'occhio ! - Copyright ORBIFLY Dicembre 2007 - Disclaimer

ORBIFLY MET'MAP TEAM :

Programmazione e sviluppo : Alexandra Zaïnal
Concezione e sviluppo : Baudouin d'Aumeries
Co-Programmazione e sviluppo : Marc-Olivier Méhu
Supporto tecnico e logistico : Manuel Goepfert
Aiuto per la traduzione : Arnaldo La Scala

Contatto : metmap@orbifly.com




FONTI E CREDITI :

   NOAA       Earth
Advisory